Time;durP1;ratioP1;P1;durP2;ratioP2;P2;SDS_P1;SDS_P2;PMS_P1;PMS_P2;Temp;Humidity;BMP_temperature;BMP_pressure;BME280_temperature;BME280_humidity;BME280_pressure;Samples;Min_cycle;Max_cycle;Signal;HPM_P1;HPM_P2
2021/06/25 00:00:47;;;;;;;11.40;2.95;;;25.20;75.40;;;;;;5066697;28;20762;-70
2021/06/25 00:03:13;;;;;;;9.73;3.67;;;25.10;75.40;;;;;;5067283;28;20236;-70
2021/06/25 00:05:39;;;;;;;7.32;3.33;;;25.10;76.10;;;;;;5066405;28;20187;-70
2021/06/25 00:08:05;;;;;;;7.53;3.60;;;25.10;76.00;;;;;;5066953;28;20217;-71
2021/06/25 00:10:31;;;;;;;4.22;3.10;;;25.10;75.80;;;;;;5067118;28;20179;-70
2021/06/25 00:12:56;;;;;;;5.90;3.25;;;25.10;75.70;;;;;;5065100;28;20195;-70
2021/06/25 00:15:22;;;;;;;3.85;3.35;;;25.10;75.70;;;;;;5066398;28;20195;-70
2021/06/25 00:17:48;;;;;;;4.45;3.58;;;25.00;75.80;;;;;;5067513;28;20598;-70
2021/06/25 00:20:14;;;;;;;10.23;3.55;;;25.00;75.80;;;;;;5058771;28;20186;-70
2021/06/25 00:22:41;;;;;;;5.43;3.72;;;25.00;76.00;;;;;;5069518;28;20726;-70
2021/06/25 00:25:07;;;;;;;8.80;3.85;;;25.00;76.20;;;;;;5069640;28;20527;-70
2021/06/25 00:27:33;;;;;;;5.78;3.58;;;24.90;76.20;;;;;;5064775;28;20633;-71
2021/06/25 00:29:59;;;;;;;13.52;3.92;;;24.90;76.00;;;;;;5068942;28;20585;-70
2021/06/25 00:32:25;;;;;;;7.25;3.65;;;24.80;76.20;;;;;;5068192;28;20240;-70
2021/06/25 00:34:50;;;;;;;9.80;4.10;;;24.80;76.60;;;;;;5070260;28;20175;-70
2021/06/25 00:37:16;;;;;;;6.60;3.60;;;24.70;76.80;;;;;;5070526;28;20233;-70
2021/06/25 00:39:42;;;;;;;9.00;4.55;;;24.60;77.20;;;;;;5070395;28;20179;-70
2021/06/25 00:42:08;;;;;;;6.07;3.85;;;24.50;77.00;;;;;;5070025;28;20210;-70
2021/06/25 00:44:41;;;;;;;11.93;3.95;;;24.50;77.20;;;;;;5069934;28;20228;-71
2021/06/25 00:47:08;;;;;;;10.10;4.18;;;24.50;78.60;;;;;;5069877;28;20202;-71
2021/06/25 00:49:35;;;;;;;8.13;3.78;;;24.40;77.40;;;;;;5069890;28;20232;-70
2021/06/25 00:52:02;;;;;;;11.52;3.78;;;24.40;77.50;;;;;;5069581;28;20203;-70
2021/06/25 00:54:27;;;;;;;5.85;4.22;;;24.40;77.20;;;;;;5070062;28;20193;-70
2021/06/25 00:56:53;;;;;;;7.13;3.97;;;24.30;77.40;;;;;;5066341;28;20210;-71
2021/06/25 00:59:19;;;;;;;8.18;4.25;;;24.30;77.80;;;;;;5070014;28;20668;-71
2021/06/25 01:01:44;;;;;;;7.75;3.47;;;24.40;78.50;;;;;;5069881;28;20179;-70
2021/06/25 01:04:13;;;;;;;4.93;3.85;;;24.40;78.80;;;;;;5069705;28;20191;-71
2021/06/25 01:06:39;;;;;;;7.57;3.90;;;24.30;78.50;;;;;;5058115;28;20838;-71
2021/06/25 01:09:08;;;;;;;9.23;4.15;;;24.30;78.30;;;;;;5069085;28;20178;-70
2021/06/25 01:11:35;;;;;;;7.70;4.20;;;24.30;78.80;;;;;;5068623;28;20178;-70
2021/06/25 01:14:00;;;;;;;9.93;4.10;;;24.30;78.60;;;;;;5059607;28;20188;-69
2021/06/25 01:16:27;;;;;;;8.82;3.45;;;24.30;78.90;;;;;;5069864;28;20176;-70
2021/06/25 01:18:53;;;;;;;9.63;4.13;;;24.30;78.70;;;;;;5069516;28;20259;-70
2021/06/25 01:21:19;;;;;;;8.70;4.50;;;24.30;78.80;;;;;;5069014;28;20688;-70
2021/06/25 01:23:45;;;;;;;12.15;6.28;;;24.30;79.30;;;;;;5069235;28;20223;-71
2021/06/25 01:26:11;;;;;;;9.68;5.60;;;24.20;79.20;;;;;;5068918;28;20611;-70
2021/06/25 01:28:38;;;;;;;8.68;5.93;;;24.20;79.40;;;;;;5066874;28;20194;-70
2021/06/25 01:31:05;;;;;;;6.75;5.57;;;24.20;79.40;;;;;;5063762;28;20727;-70
2021/06/25 01:33:33;;;;;;;10.52;5.15;;;24.20;80.20;;;;;;5068068;28;20626;-71
2021/06/25 01:35:59;;;;;;;9.30;5.05;;;24.20;79.40;;;;;;5068904;28;20190;-70
2021/06/25 01:38:26;;;;;;;14.80;4.93;;;24.20;79.80;;;;;;5068842;28;20656;-71
2021/06/25 01:40:52;;;;;;;10.38;5.38;;;24.10;80.10;;;;;;5066985;28;20175;-71
2021/06/25 01:43:19;;;;;;;8.43;4.63;;;24.10;80.80;;;;;;5062579;28;20210;-70
2021/06/25 01:45:45;;;;;;;9.40;4.78;;;24.00;80.30;;;;;;5065396;28;20183;-70
2021/06/25 01:48:11;;;;;;;11.38;4.57;;;24.00;80.40;;;;;;5068210;28;20183;-70
2021/06/25 01:50:40;;;;;;;8.45;4.43;;;24.00;81.20;;;;;;5072251;28;20190;-70
2021/06/25 01:53:12;;;;;;;7.68;4.20;;;23.90;80.60;;;;;;5069053;28;20252;-70
2021/06/25 01:55:39;;;;;;;13.15;4.25;;;23.90;80.40;;;;;;5066410;28;20182;-70
2021/06/25 01:58:13;;;;;;;11.75;5.05;;;23.90;80.80;;;;;;5084264;28;20927;-69
2021/06/25 02:00:45;;;;;;;10.32;4.25;;;23.90;81.10;;;;;;5068821;28;20273;-70
2021/06/25 02:03:11;;;;;;;11.05;4.40;;;23.80;80.90;;;;;;5068826;28;20533;-70
2021/06/25 02:05:37;;;;;;;12.75;4.30;;;23.80;83.20;;;;;;5067552;28;20760;-70
2021/06/25 02:08:02;;;;;;;9.18;4.30;;;23.70;81.90;;;;;;5068513;28;20203;-70
2021/06/25 02:10:28;;;;;;;14.32;5.05;;;23.70;81.60;;;;;;5068382;28;20209;-69
2021/06/25 02:12:54;;;;;;;13.77;4.00;;;23.70;81.90;;;;;;5068345;28;20178;-69
2021/06/25 02:15:20;;;;;;;10.43;3.78;;;23.60;82.10;;;;;;5068398;28;20191;-70
2021/06/25 02:17:47;;;;;;;9.52;4.18;;;23.60;82.40;;;;;;5062160;28;20176;-70
2021/06/25 02:20:13;;;;;;;11.90;3.58;;;23.60;82.00;;;;;;5060900;28;20787;-70
2021/06/25 02:22:39;;;;;;;6.18;4.30;;;23.60;82.30;;;;;;5068306;28;20211;-70
2021/06/25 02:25:08;;;;;;;5.18;3.33;;;23.50;82.00;;;;;;5069749;28;20217;-70
2021/06/25 02:27:33;;;;;;;5.78;3.95;;;23.50;82.10;;;;;;5067323;28;20266;-69
2021/06/25 02:29:59;;;;;;;6.40;3.60;;;23.50;82.10;;;;;;5068076;28;20633;-70
2021/06/25 02:32:25;;;;;;;6.32;3.75;;;23.50;82.60;;;;;;5067266;28;20612;-69
2021/06/25 02:34:51;;;;;;;9.90;4.32;;;23.50;82.60;;;;;;5066725;28;20182;-70
2021/06/25 02:37:16;;;;;;;4.97;4.40;;;23.50;82.60;;;;;;5064724;28;20793;-70
2021/06/25 02:39:42;;;;;;;7.88;3.97;;;23.40;82.90;;;;;;5064813;28;20179;-69
2021/06/25 02:42:08;;;;;;;8.35;3.97;;;23.40;82.80;;;;;;5067528;28;20679;-69
2021/06/25 02:44:34;;;;;;;5.72;3.60;;;23.40;83.00;;;;;;5067008;28;20175;-70
2021/06/25 02:46:59;;;;;;;11.27;4.38;;;23.30;83.10;;;;;;5067495;28;20631;-69
2021/06/25 02:49:25;;;;;;;9.82;3.92;;;23.30;83.70;;;;;;5066206;28;20273;-70
2021/06/25 02:51:51;;;;;;;9.27;3.55;;;23.30;83.30;;;;;;5066600;28;20183;-70
2021/06/25 02:54:17;;;;;;;4.55;4.05;;;23.20;83.30;;;;;;5062615;28;20197;-70
2021/06/25 02:56:42;;;;;;;6.32;3.63;;;23.20;83.30;;;;;;5062811;28;20809;-70
2021/06/25 02:59:08;;;;;;;10.63;3.85;;;23.20;83.70;;;;;;5058343;28;20733;-70
2021/06/25 03:01:34;;;;;;;5.03;3.83;;;23.20;83.80;;;;;;5064956;28;20589;-70
2021/06/25 03:03:59;;;;;;;7.55;3.53;;;23.20;83.90;;;;;;5067432;28;20179;-70
2021/06/25 03:06:26;;;;;;;13.15;4.15;;;23.20;83.90;;;;;;5066146;28;20240;-70
2021/06/25 03:08:51;;;;;;;11.52;3.25;;;23.10;84.00;;;;;;5067401;28;20185;-70
2021/06/25 03:11:17;;;;;;;7.50;3.35;;;23.10;84.20;;;;;;5066508;28;20676;-69
2021/06/25 03:13:43;;;;;;;10.05;3.65;;;23.10;84.50;;;;;;5064171;28;20195;-70
2021/06/25 03:16:08;;;;;;;8.45;3.67;;;23.00;84.50;;;;;;5067216;28;20734;-70
2021/06/25 03:18:34;;;;;;;5.00;3.47;;;23.00;84.70;;;;;;5067835;28;20185;-70
2021/06/25 03:21:00;;;;;;;9.05;4.10;;;23.00;84.60;;;;;;5067266;28;20221;-70
2021/06/25 03:23:26;;;;;;;10.05;3.67;;;23.00;84.50;;;;;;5067259;28;20210;-70
2021/06/25 03:25:52;;;;;;;11.02;4.22;;;22.90;84.90;;;;;;5054717;28;20217;-70
2021/06/25 03:28:18;;;;;;;6.80;3.83;;;22.90;85.00;;;;;;5067286;28;20175;-70
2021/06/25 03:30:44;;;;;;;7.78;4.13;;;22.90;84.80;;;;;;5066782;28;20213;-70
2021/06/25 03:33:10;;;;;;;5.85;4.10;;;22.90;84.90;;;;;;5065904;28;20233;-70
2021/06/25 03:35:36;;;;;;;10.23;4.15;;;22.80;85.30;;;;;;5066561;28;20266;-70
2021/06/25 03:38:02;;;;;;;8.68;4.18;;;22.80;85.50;;;;;;5063753;28;20254;-70
2021/06/25 03:40:31;;;;;;;8.32;4.60;;;22.70;85.30;;;;;;5067255;28;20191;-70
2021/06/25 03:42:57;;;;;;;7.93;4.32;;;22.70;84.90;;;;;;5066430;28;20215;-70
2021/06/25 03:45:23;;;;;;;6.95;4.05;;;22.70;85.70;;;;;;5066644;28;20224;-70
2021/06/25 03:47:48;;;;;;;7.30;4.03;;;22.80;85.40;;;;;;5067421;28;20984;-70
2021/06/25 03:50:14;;;;;;;7.93;4.40;;;22.80;85.00;;;;;;5070520;28;20178;-70
2021/06/25 03:52:40;;;;;;;4.07;3.58;;;22.80;85.00;;;;;;5066806;28;20221;-70
2021/06/25 03:55:09;;;;;;;5.88;3.70;;;22.80;84.90;;;;;;5067005;28;20189;-71
2021/06/25 03:57:39;;;;;;;7.80;4.35;;;22.90;85.10;;;;;;5064363;28;20633;-71
2021/06/25 04:00:07;;;;;;;5.90;3.80;;;22.90;85.00;;;;;;5069816;28;20728;-71
2021/06/25 04:02:33;;;;;;;12.93;4.47;;;23.00;84.60;;;;;;5068390;28;20219;-71
2021/06/25 04:04:58;;;;;;;9.18;4.18;;;23.00;85.10;;;;;;5070826;28;20183;-71
2021/06/25 04:07:27;;;;;;;8.32;4.55;;;23.00;85.00;;;;;;5070167;28;20185;-72
2021/06/25 04:09:52;;;;;;;15.48;5.00;;;23.10;85.20;;;;;;5077421;28;20188;-71
2021/06/25 04:12:18;;;;;;;6.05;5.05;;;23.10;84.70;;;;;;5071600;28;20310;-72
2021/06/25 04:14:44;;;;;;;7.40;4.80;;;23.20;84.90;;;;;;5073290;28;20187;-72
2021/06/25 04:17:10;;;;;;;6.35;5.32;;;23.20;84.90;;;;;;5067358;28;20223;-71
2021/06/25 04:19:35;;;;;;;12.38;5.35;;;23.20;85.00;;;;;;5065122;28;20181;-71
2021/06/25 04:22:01;;;;;;;14.10;5.30;;;23.20;84.70;;;;;;5069768;28;20291;-71
2021/06/25 04:24:27;;;;;;;14.82;4.63;;;23.20;85.00;;;;;;5068077;28;20232;-70
2021/06/25 04:26:52;;;;;;;9.13;5.00;;;23.20;85.00;;;;;;5067955;28;20248;-69
2021/06/25 04:29:18;;;;;;;10.77;5.40;;;23.20;84.70;;;;;;5068067;28;20240;-69
2021/06/25 04:31:50;;;;;;;8.63;5.28;;;23.20;84.70;;;;;;5068449;28;20676;-70
2021/06/25 04:34:16;;;;;;;10.63;4.50;;;23.20;84.50;;;;;;5067284;28;20187;-70
2021/06/25 04:36:42;;;;;;;11.52;5.40;;;23.30;84.40;;;;;;5068118;28;20224;-70
2021/06/25 04:39:07;;;;;;;9.10;4.68;;;23.30;83.90;;;;;;5069461;28;20183;-70
2021/06/25 04:41:34;;;;;;;11.65;4.20;;;23.30;83.70;;;;;;5084674;28;20285;-70
2021/06/25 04:44:00;;;;;;;5.78;4.15;;;23.40;83.70;;;;;;5069647;28;20215;-70
2021/06/25 04:46:26;;;;;;;12.40;4.90;;;23.40;83.30;;;;;;5069852;28;20182;-70
2021/06/25 04:48:52;;;;;;;8.85;4.95;;;23.50;83.10;;;;;;5065657;28;20573;-70
2021/06/25 04:51:18;;;;;;;12.25;4.63;;;23.60;83.10;;;;;;5067726;28;20186;-68
2021/06/25 04:53:44;;;;;;;15.13;4.60;;;23.60;82.90;;;;;;5068002;28;20266;-68
2021/06/25 04:56:09;;;;;;;13.80;5.22;;;23.70;83.00;;;;;;5067600;28;20183;-69
2021/06/25 04:58:35;;;;;;;8.32;5.10;;;23.80;82.90;;;;;;5070026;28;20551;-68
2021/06/25 05:01:01;;;;;;;11.85;5.13;;;23.80;83.30;;;;;;5066885;28;20656;-70
2021/06/25 05:03:27;;;;;;;8.48;5.20;;;23.90;83.10;;;;;;5064415;28;20669;-69
2021/06/25 05:05:53;;;;;;;9.80;5.50;;;23.90;83.10;;;;;;5065671;28;20574;-68
2021/06/25 05:08:18;;;;;;;8.85;5.88;;;24.00;82.70;;;;;;5063777;28;20186;-69
2021/06/25 05:10:44;;;;;;;5.88;4.50;;;24.00;82.90;;;;;;5065694;28;20275;-69
2021/06/25 05:13:15;;;;;;;11.90;5.90;;;24.10;83.00;;;;;;5068219;28;20229;-69
2021/06/25 05:15:41;;;;;;;10.73;6.43;;;24.20;83.00;;;;;;5063599;28;20199;-72
2021/06/25 05:18:24;;;;;;;14.88;5.22;;;24.20;83.00;;;;;;5067737;28;20671;-72
2021/06/25 05:20:52;;;;;;;11.98;4.95;;;24.30;83.20;;;;;;5067634;28;20205;-72
2021/06/25 05:23:20;;;;;;;12.82;5.30;;;24.30;82.70;;;;;;5064293;28;20276;-72
2021/06/25 05:25:46;;;;;;;5.60;5.20;;;24.40;82.40;;;;;;5068434;28;20230;-70
2021/06/25 05:28:12;;;;;;;9.05;4.93;;;24.50;82.20;;;;;;5066927;28;20207;-72
2021/06/25 05:30:39;;;;;;;21.13;6.07;;;24.50;81.90;;;;;;5063734;28;20180;-73
2021/06/25 05:33:06;;;;;;;12.43;5.30;;;24.60;82.00;;;;;;5055021;28;20183;-72
2021/06/25 05:35:33;;;;;;;9.07;5.63;;;24.60;81.80;;;;;;5066799;28;20205;-71
2021/06/25 05:38:04;;;;;;;19.13;5.65;;;24.70;81.80;;;;;;5060351;28;21256;-72
2021/06/25 05:40:30;;;;;;;18.90;5.65;;;24.80;81.90;;;;;;5064742;28;20573;-70
2021/06/25 05:42:56;;;;;;;11.65;5.75;;;24.80;81.70;;;;;;5065806;28;20207;-69
2021/06/25 05:45:22;;;;;;;11.90;5.32;;;24.90;81.60;;;;;;5065543;28;20191;-69
2021/06/25 05:47:48;;;;;;;16.42;5.97;;;25.00;81.30;;;;;;5067174;28;20207;-70
2021/06/25 05:50:15;;;;;;;15.23;5.57;;;25.00;81.20;;;;;;5066850;28;20261;-70
2021/06/25 05:52:42;;;;;;;17.17;6.18;;;25.00;81.00;;;;;;5065639;28;20191;-70
2021/06/25 05:55:08;;;;;;;19.50;6.53;;;25.10;81.20;;;;;;5068454;28;20186;-70
2021/06/25 05:57:35;;;;;;;9.63;5.75;;;25.20;81.20;;;;;;5061712;28;20735;-69
2021/06/25 06:00:02;;;;;;;9.65;5.53;;;25.20;80.50;;;;;;5064122;28;20190;-70
2021/06/25 06:02:27;;;;;;;9.57;5.72;;;25.30;80.90;;;;;;5064317;28;20551;-69
2021/06/25 06:04:53;;;;;;;12.27;5.72;;;25.30;80.70;;;;;;5057381;28;20179;-68
2021/06/25 06:07:19;;;;;;;13.70;6.10;;;25.40;80.60;;;;;;5072283;28;20207;-69
2021/06/25 06:09:44;;;;;;;11.70;6.10;;;25.40;80.70;;;;;;5068344;28;20183;-70
2021/06/25 06:12:10;;;;;;;12.10;5.93;;;25.50;80.70;;;;;;5065508;28;20272;-68
2021/06/25 06:14:36;;;;;;;11.88;5.80;;;25.60;80.50;;;;;;5067975;28;20206;-70
2021/06/25 06:17:01;;;;;;;11.75;7.38;;;25.60;80.30;;;;;;5066211;28;20194;-70
2021/06/25 06:19:37;;;;;;;15.25;6.38;;;25.70;80.10;;;;;;5061732;28;20254;-70
2021/06/25 06:33:08;;;;;;;12.63;6.47;;;26.00;79.60;;;;;;5060580;28;21042;-69
2021/06/25 06:35:39;;;;;;;14.13;6.97;;;26.10;79.40;;;;;;5057828;28;20179;-69
2021/06/25 06:38:05;;;;;;;14.80;6.47;;;26.20;78.80;;;;;;5066485;28;20179;-69
2021/06/25 06:40:32;;;;;;;15.60;6.88;;;26.20;78.80;;;;;;5075049;28;20639;-69
2021/06/25 06:42:58;;;;;;;14.82;7.22;;;26.30;79.20;;;;;;5070838;28;20291;-69
2021/06/25 06:45:24;;;;;;;13.63;7.00;;;26.30;78.70;;;;;;5067264;28;20186;-69
2021/06/25 06:47:50;;;;;;;16.38;7.25;;;26.40;78.90;;;;;;5066607;28;20648;-69
2021/06/25 06:50:16;;;;;;;12.98;7.07;;;26.50;78.80;;;;;;5073696;28;20289;-69
2021/06/25 06:52:44;;;;;;;14.93;7.40;;;26.50;78.30;;;;;;5060288;28;20199;-69
2021/06/25 06:55:11;;;;;;;18.58;7.57;;;26.50;77.90;;;;;;5081100;28;20206;-69
2021/06/25 06:57:38;;;;;;;16.20;7.15;;;26.60;78.10;;;;;;5061654;28;20187;-70
2021/06/25 07:00:06;;;;;;;12.88;6.50;;;26.70;77.50;;;;;;5071285;28;20741;-70
2021/06/25 07:02:33;;;;;;;15.68;6.78;;;26.70;78.00;;;;;;5063257;28;20259;-70
2021/06/25 07:04:59;;;;;;;10.98;6.18;;;26.80;77.80;;;;;;5065278;28;20183;-70
2021/06/25 07:07:24;;;;;;;17.73;6.35;;;26.80;77.90;;;;;;5065480;28;20179;-70
2021/06/25 07:09:50;;;;;;;20.23;7.00;;;26.90;78.00;;;;;;5065127;28;20194;-70
2021/06/25 07:12:16;;;;;;;18.52;6.65;;;26.90;77.90;;;;;;5067671;28;20179;-70
2021/06/25 07:14:41;;;;;;;16.55;6.75;;;27.00;77.90;;;;;;5063512;28;20202;-70
2021/06/25 07:17:07;;;;;;;15.48;7.47;;;27.10;78.20;;;;;;5058112;28;20195;-70
2021/06/25 07:19:33;;;;;;;18.15;6.85;;;27.20;77.80;;;;;;5064741;28;20193;-70
2021/06/25 07:21:58;;;;;;;17.33;6.75;;;27.20;77.30;;;;;;5069174;28;20313;-70
2021/06/25 07:24:24;;;;;;;14.30;6.18;;;27.30;76.90;;;;;;5065171;28;20183;-70
2021/06/25 07:26:50;;;;;;;14.57;6.05;;;27.30;77.30;;;;;;5057425;28;20191;-70
2021/06/25 07:29:15;;;;;;;13.60;6.60;;;27.40;77.60;;;;;;5072816;28;20186;-70
2021/06/25 07:31:41;;;;;;;12.73;6.18;;;27.40;77.40;;;;;;5060315;28;20248;-70
2021/06/25 07:34:07;;;;;;;12.38;6.15;;;27.50;77.00;;;;;;5057697;28;20190;-70
2021/06/25 07:36:33;;;;;;;11.75;5.88;;;27.60;76.60;;;;;;5065701;28;20640;-71
2021/06/25 07:38:59;;;;;;;22.85;6.90;;;27.70;77.20;;;;;;5065389;28;20190;-70
2021/06/25 07:41:24;;;;;;;14.48;6.15;;;27.70;77.30;;;;;;5056834;28;20218;-70
2021/06/25 07:43:50;;;;;;;15.13;6.53;;;27.80;76.80;;;;;;5063534;28;20364;-70
2021/06/25 07:46:16;;;;;;;14.02;6.47;;;27.90;76.60;;;;;;5063470;28;20723;-69
2021/06/25 07:48:41;;;;;;;16.38;6.35;;;28.00;75.80;;;;;;5066525;28;20194;-70
2021/06/25 07:51:07;;;;;;;21.65;6.70;;;28.10;76.30;;;;;;5066150;28;20198;-68
2021/06/25 07:53:33;;;;;;;16.33;5.78;;;28.20;76.60;;;;;;5072842;28;20191;-68
2021/06/25 07:55:58;;;;;;;14.00;7.03;;;28.20;76.40;;;;;;5074587;28;20275;-69
2021/06/25 07:58:24;;;;;;;14.05;7.55;;;28.30;76.00;;;;;;5072561;28;20678;-71
2021/06/25 08:00:50;;;;;;;12.30;7.10;;;28.40;75.60;;;;;;5076076;28;20175;-71
2021/06/25 08:03:15;;;;;;;9.43;6.30;;;28.50;75.00;;;;;;5074746;28;20221;-70
2021/06/25 08:05:41;;;;;;;17.17;6.65;;;28.60;75.20;;;;;;5075126;28;20837;-70
2021/06/25 08:08:07;;;;;;;18.60;7.35;;;28.60;75.40;;;;;;5072385;28;20198;-71
2021/06/25 08:10:33;;;;;;;17.00;7.90;;;28.70;75.20;;;;;;5073654;28;20183;-70
2021/06/25 08:13:00;;;;;;;14.63;7.20;;;28.80;74.90;;;;;;5075062;28;20253;-70
2021/06/25 08:15:26;;;;;;;12.40;6.68;;;28.90;73.70;;;;;;5074728;28;20677;-70
2021/06/25 08:17:51;;;;;;;19.08;7.32;;;29.10;73.20;;;;;;5072146;28;20287;-71
2021/06/25 08:20:17;;;;;;;14.48;7.57;;;29.20;73.40;;;;;;5076605;28;20297;-71
2021/06/25 08:22:43;;;;;;;20.60;7.50;;;29.30;73.60;;;;;;5073898;28;20383;-72
2021/06/25 08:25:09;;;;;;;12.40;7.15;;;29.40;73.50;;;;;;5076503;28;20183;-71
2021/06/25 08:27:35;;;;;;;18.88;7.22;;;29.50;73.80;;;;;;5073710;28;20182;-70
2021/06/25 08:30:02;;;;;;;17.00;7.35;;;29.60;73.60;;;;;;5075713;28;20182;-70
2021/06/25 08:32:28;;;;;;;14.35;6.45;;;29.70;73.60;;;;;;5074922;28;20182;-71
2021/06/25 08:34:54;;;;;;;12.45;5.75;;;29.80;73.30;;;;;;5075719;28;20189;-68
2021/06/25 08:37:22;;;;;;;11.13;5.75;;;29.90;70.90;;;;;;5074834;28;20187;-70
2021/06/25 08:39:48;;;;;;;13.35;5.55;;;30.00;70.70;;;;;;5074034;28;20691;-70
2021/06/25 08:42:15;;;;;;;21.20;5.65;;;30.10;70.50;;;;;;5074816;28;20298;-69
2021/06/25 08:44:41;;;;;;;9.75;5.57;;;30.20;71.20;;;;;;5077117;28;20178;-69
2021/06/25 08:47:08;;;;;;;11.60;5.68;;;30.30;70.40;;;;;;5076132;28;20186;-71
2021/06/25 08:49:35;;;;;;;7.85;4.25;;;30.40;70.40;;;;;;5094195;28;20239;-70
2021/06/25 08:52:02;;;;;;;15.70;4.75;;;30.50;65.80;;;;;;5074664;28;20182;-70
2021/06/25 08:54:28;;;;;;;14.40;3.42;;;30.60;64.80;;;;;;5076055;28;20187;-70
2021/06/25 08:56:54;;;;;;;6.30;3.58;;;30.70;64.40;;;;;;5076694;28;20182;-70
2021/06/25 08:59:20;;;;;;;14.88;4.13;;;30.80;63.70;;;;;;5069567;28;20178;-70
2021/06/25 09:01:50;;;;;;;5.30;3.42;;;30.90;64.10;;;;;;5076512;28;20183;-69
2021/06/25 09:04:37;;;;;;;7.05;4.03;;;31.00;65.50;;;;;;5078669;28;20201;-69
2021/06/25 09:07:04;;;;;;;11.65;3.58;;;31.10;64.80;;;;;;5076078;28;20182;-69
2021/06/25 09:09:48;;;;;;;11.63;3.63;;;31.30;64.90;;;;;;5075909;28;20205;-70
2021/06/25 09:12:22;;;;;;;13.45;3.33;;;31.40;63.20;;;;;;5076376;28;20252;-69
2021/06/25 09:15:15;;;;;;;18.08;4.43;;;31.60;63.70;;;;;;5075178;28;20202;-71
2021/06/25 09:18:12;;;;;;;8.73;3.88;;;31.70;61.90;;;;;;5073019;28;20179;-70
2021/06/25 09:20:55;;;;;;;8.95;3.42;;;31.90;62.80;;;;;;5078147;28;20198;-69
2021/06/25 09:23:38;;;;;;;7.82;3.40;;;32.10;62.60;;;;;;5076301;28;20238;-69
2021/06/25 09:26:10;;;;;;;16.33;4.05;;;32.20;63.30;;;;;;5077456;28;20245;-69
2021/06/25 09:28:37;;;;;;;9.45;4.72;;;32.40;63.30;;;;;;5077807;28;20725;-69
2021/06/25 09:31:22;;;;;;;10.52;3.83;;;32.50;63.10;;;;;;5070959;28;20178;-69
2021/06/25 09:33:52;;;;;;;12.82;4.55;;;32.70;63.10;;;;;;5089401;28;20178;-70
2021/06/25 09:36:22;;;;;;;9.55;4.30;;;32.80;63.30;;;;;;5073964;28;20576;-71
2021/06/25 09:39:07;;;;;;;10.80;4.25;;;33.00;63.00;;;;;;5089843;28;20189;-70
2021/06/25 09:41:34;;;;;;;16.23;4.10;;;33.10;61.50;;;;;;5076597;28;20181;-70
2021/06/25 09:44:05;;;;;;;8.85;3.13;;;33.20;61.00;;;;;;5091136;28;20222;-70
2021/06/25 09:46:41;;;;;;;10.10;2.80;;;33.30;59.50;;;;;;5092903;28;20186;-70
2021/06/25 09:49:12;;;;;;;7.38;3.20;;;33.30;58.40;;;;;;5074484;28;20286;-71
2021/06/25 09:51:40;;;;;;;12.95;3.22;;;33.40;58.70;;;;;;5075896;28;20273;-70
2021/06/25 09:54:15;;;;;;;12.95;4.50;;;33.50;58.70;;;;;;5075615;28;20659;-70
2021/06/25 10:02:30;;;;;;;16.05;4.45;;;33.60;59.90;;;;;;5036007;28;20681;-70
2021/06/25 10:05:10;;;;;;;14.35;2.63;;;33.80;58.40;;;;;;5035567;28;20792;-70
2021/06/25 10:07:36;;;;;;;8.20;2.83;;;34.00;57.10;;;;;;5034783;28;20226;-69
2021/06/25 10:10:10;;;;;;;15.27;3.33;;;34.10;56.90;;;;;;5034148;28;20285;-70
2021/06/25 10:12:41;;;;;;;6.07;1.73;;;34.30;55.40;;;;;;5037129;28;20186;-70
2021/06/25 10:15:07;;;;;;;11.02;2.35;;;34.50;56.80;;;;;;5036312;28;20230;-70
2021/06/25 10:17:35;;;;;;;15.63;2.20;;;34.70;56.40;;;;;;5035372;28;20290;-70
2021/06/25 10:20:08;;;;;;;11.98;2.72;;;35.00;55.60;;;;;;5036306;28;20241;-70
2021/06/25 10:22:35;;;;;;;16.35;3.00;;;35.20;54.60;;;;;;5035932;28;20272;-70
2021/06/25 10:25:05;;;;;;;6.95;1.85;;;35.40;55.00;;;;;;5019609;28;20662;-69
2021/06/25 10:27:32;;;;;;;15.05;2.67;;;35.70;55.00;;;;;;5039405;28;20191;-70
2021/06/25 10:29:59;;;;;;;10.43;1.95;;;35.90;54.40;;;;;;5038049;28;20315;-70
2021/06/25 10:32:25;;;;;;;14.25;3.10;;;36.20;52.90;;;;;;5025142;28;20255;-70
2021/06/25 10:34:51;;;;;;;11.55;2.80;;;36.40;54.80;;;;;;5039042;28;20211;-70
2021/06/25 10:37:21;;;;;;;16.05;2.65;;;36.70;53.10;;;;;;5063723;28;20661;-70
2021/06/25 10:39:47;;;;;;;11.45;2.75;;;37.00;52.00;;;;;;5075383;28;20178;-70
2021/06/25 10:42:13;;;;;;;16.10;2.70;;;37.40;51.40;;;;;;5069856;28;20217;-70
2021/06/25 10:44:55;;;;;;;7.60;2.50;;;37.80;50.60;;;;;;5070743;28;20251;-70
2021/06/25 10:47:25;;;;;;;9.10;2.45;;;38.30;50.40;;;;;;5072192;28;20197;-70
2021/06/25 10:50:03;;;;;;;11.48;2.17;;;38.70;49.10;;;;;;5074205;28;20198;-70
2021/06/25 10:53:11;;;;;;;11.40;2.85;;;39.00;48.00;;;;;;5071064;28;20189;-70
2021/06/25 10:55:47;;;;;;;18.88;2.75;;;39.50;47.10;;;;;;5070770;28;20189;-70
2021/06/25 10:58:23;;;;;;;14.77;3.42;;;39.90;49.10;;;;;;5069725;28;20569;-70
2021/06/25 11:00:55;;;;;;;14.82;2.20;;;40.40;47.40;;;;;;5078524;28;20205;-69
2021/06/25 11:03:29;;;;;;;13.82;2.42;;;40.80;47.20;;;;;;5091376;28;20694;-71
2021/06/25 11:05:55;;;;;;;8.05;2.03;;;41.20;45.30;;;;;;5067918;28;20175;-71
2021/06/25 11:08:21;;;;;;;14.43;2.65;;;41.60;46.60;;;;;;5072485;28;20235;-70
2021/06/25 11:10:52;;;;;;;15.43;2.70;;;41.90;45.30;;;;;;5075732;28;20177;-70
2021/06/25 11:13:23;;;;;;;17.05;2.63;;;42.20;44.70;;;;;;5072779;28;20605;-70
2021/06/25 11:15:53;;;;;;;17.02;2.90;;;42.20;44.80;;;;;;5075026;28;20252;-71
2021/06/25 11:18:21;;;;;;;12.55;2.60;;;42.10;44.60;;;;;;5076852;28;20186;-70
2021/06/25 11:21:09;;;;;;;21.48;2.22;;;42.10;44.90;;;;;;5091226;28;20276;-70
2021/06/25 11:23:38;;;;;;;9.57;2.55;;;42.40;43.10;;;;;;5073922;28;20202;-70
2021/06/25 11:26:20;;;;;;;10.60;2.15;;;42.60;43.60;;;;;;5073831;28;20187;-69
2021/06/25 11:28:51;;;;;;;16.30;2.35;;;42.80;44.70;;;;;;5079230;28;20196;-70
2021/06/25 11:31:20;;;;;;;13.13;2.42;;;43.10;43.90;;;;;;5075334;28;20185;-70
2021/06/25 11:33:48;;;;;;;18.92;3.17;;;43.30;42.60;;;;;;5075380;28;20721;-70
2021/06/25 11:36:26;;;;;;;14.32;3.45;;;43.40;44.80;;;;;;5076370;28;20265;-70
2021/06/25 11:38:54;;;;;;;11.10;2.70;;;43.70;43.40;;;;;;5073574;28;20190;-70
2021/06/25 11:41:35;;;;;;;10.88;2.00;;;43.90;43.30;;;;;;5072158;28;20665;-70
2021/06/25 11:44:27;;;;;;;9.07;2.08;;;44.20;41.00;;;;;;5072009;28;20576;-70
2021/06/25 11:47:00;;;;;;;10.43;2.38;;;44.30;40.70;;;;;;5053743;28;20206;-70
2021/06/25 11:52:15;;;;;;;14.70;2.80;;;44.90;43.00;;;;;;5051245;28;20191;-71
2021/06/25 11:54:43;;;;;;;8.48;2.15;;;45.20;41.40;;;;;;5051649;28;20207;-69
2021/06/25 11:57:17;;;;;;;26.35;2.72;;;45.30;40.80;;;;;;5046070;28;20219;-69
2021/06/25 11:59:54;;;;;;;16.75;2.80;;;45.30;40.80;;;;;;5051398;28;20606;-69
2021/06/25 12:02:20;;;;;;;8.10;2.30;;;45.40;40.10;;;;;;5050653;28;20202;-69
2021/06/25 12:04:46;;;;;;;10.48;2.40;;;45.50;41.50;;;;;;5050523;28;20182;-69
2021/06/25 12:07:14;;;;;;;14.25;2.25;;;45.40;39.70;;;;;;5052600;28;20182;-71
2021/06/25 12:09:47;;;;;;;7.63;2.08;;;45.30;40.20;;;;;;5052038;28;20229;-70
2021/06/25 12:12:25;;;;;;;22.15;2.63;;;45.30;40.40;;;;;;5049701;28;20600;-70
2021/06/25 12:15:07;;;;;;;17.17;2.55;;;45.10;38.40;;;;;;5050479;28;20234;-70
2021/06/25 12:18:05;;;;;;;11.70;2.50;;;45.00;39.30;;;;;;5053858;28;20198;-71
2021/06/25 12:20:32;;;;;;;9.32;1.58;;;44.90;37.40;;;;;;4995329;28;20628;-70
2021/06/25 12:22:58;;;;;;;4.28;1.45;;;44.80;39.40;;;;;;5005926;28;20311;-69
2021/06/25 12:25:32;;;;;;;8.55;2.00;;;44.70;39.50;;;;;;5043126;28;20192;-69
2021/06/25 12:27:58;;;;;;;8.13;1.67;;;44.80;39.20;;;;;;5036215;28;20199;-70
2021/06/25 12:30:24;;;;;;;8.38;1.50;;;45.10;41.00;;;;;;5040720;28;20195;-69
2021/06/25 12:33:11;;;;;;;10.13;2.63;;;45.40;40.30;;;;;;5020096;28;20199;-70
2021/06/25 12:35:39;;;;;;;17.58;1.98;;;45.80;37.70;;;;;;5035824;28;20191;-70
2021/06/25 12:38:10;;;;;;;12.82;2.08;;;46.00;39.80;;;;;;5039131;28;20199;-70
2021/06/25 12:40:39;;;;;;;8.45;2.00;;;46.20;39.00;;;;;;5036230;28;20199;-70
2021/06/25 12:43:05;;;;;;;9.95;2.00;;;46.20;38.80;;;;;;5036859;28;20258;-70
2021/06/25 12:45:58;;;;;;;18.75;2.00;;;46.20;39.50;;;;;;5038431;28;20218;-70
2021/06/25 12:48:28;;;;;;;7.88;2.40;;;46.40;37.00;;;;;;5030829;28;20226;-70
2021/06/25 12:51:04;;;;;;;12.75;2.00;;;46.60;39.40;;;;;;5036284;28;20190;-71
2021/06/25 12:53:34;;;;;;;14.23;2.50;;;46.80;40.60;;;;;;5039254;28;20274;-70
2021/06/25 12:56:08;;;;;;;21.73;2.35;;;46.70;38.10;;;;;;5043314;28;20643;-70
2021/06/25 12:58:38;;;;;;;7.45;1.92;;;46.80;38.90;;;;;;5079558;28;20194;-70
2021/06/25 13:01:05;;;;;;;8.65;1.88;;;46.90;40.10;;;;;;5071373;28;20194;-70
2021/06/25 13:03:31;;;;;;;7.93;1.90;;;46.90;39.70;;;;;;5073643;28;20279;-71
2021/06/25 13:05:58;;;;;;;8.73;2.08;;;47.00;39.70;;;;;;5076142;28;20229;-71